Time;durP1;ratioP1;P1;durP2;ratioP2;P2;SDS_P1;SDS_P2;PMS_P1;PMS_P2;Temp;Humidity;BMP_temperature;BMP_pressure;BME280_temperature;BME280_humidity;BME280_pressure;Samples;Min_cycle;Max_cycle;Signal;HPM_P1;HPM_P2
2022/03/04 00:01:27;;;;;;;10.50;8.57;;;2.60;92.70;;;;;;5051599;28;20478;-52
2022/03/04 00:03:54;;;;;;;10.80;9.17;;;2.60;92.70;;;;;;5051717;28;20526;-53
2022/03/04 00:06:21;;;;;;;10.97;9.50;;;2.50;92.70;;;;;;5051855;28;20491;-53
2022/03/04 00:08:50;;;;;;;10.73;9.63;;;2.40;92.90;;;;;;5051670;28;20537;-51
2022/03/04 00:11:17;;;;;;;9.43;8.30;;;2.50;93.30;;;;;;5051972;28;20435;-51
2022/03/04 00:13:44;;;;;;;12.00;9.37;;;2.60;93.30;;;;;;5051347;28;20496;-51
2022/03/04 00:16:11;;;;;;;11.03;9.63;;;2.50;93.10;;;;;;5051715;28;20474;-52
2022/03/04 00:18:38;;;;;;;10.93;9.00;;;2.40;93.50;;;;;;5050979;28;20516;-52
2022/03/04 00:21:05;;;;;;;11.20;9.17;;;2.60;93.70;;;;;;5051360;28;20473;-54
2022/03/04 00:23:33;;;;;;;11.80;9.87;;;2.40;93.20;;;;;;5051518;28;20469;-52
2022/03/04 00:26:01;;;;;;;11.63;8.13;;;2.30;93.60;;;;;;5051438;28;20542;-52
2022/03/04 00:28:28;;;;;;;13.20;8.83;;;2.40;94.00;;;;;;5051388;28;20524;-52
2022/03/04 00:30:55;;;;;;;12.30;9.33;;;2.40;93.90;;;;;;5051309;28;20936;-51
2022/03/04 00:33:22;;;;;;;12.63;10.00;;;1.90;93.40;;;;;;5051813;28;20488;-52
2022/03/04 00:35:49;;;;;;;9.33;8.20;;;1.60;93.80;;;;;;5051169;28;20680;-51
2022/03/04 00:38:16;;;;;;;12.00;9.80;;;1.40;94.10;;;;;;5052425;28;20470;-51
2022/03/04 00:40:43;;;;;;;10.93;8.50;;;1.30;94.60;;;;;;5051275;28;20484;-52
2022/03/04 00:43:11;;;;;;;11.60;9.00;;;1.30;94.80;;;;;;5051333;28;20489;-53
2022/03/04 00:45:38;;;;;;;11.60;9.10;;;1.20;94.60;;;;;;5051037;28;20884;-53
2022/03/04 00:48:05;;;;;;;11.13;9.17;;;1.10;94.40;;;;;;5051339;28;20476;-52
2022/03/04 00:50:32;;;;;;;14.03;10.00;;;1.20;94.40;;;;;;5051011;28;20474;-51
2022/03/04 00:53:01;;;;;;;10.00;9.00;;;1.30;94.70;;;;;;5051010;28;20479;-51
2022/03/04 00:55:28;;;;;;;9.13;8.23;;;1.50;94.80;;;;;;5051065;28;20503;-51
2022/03/04 00:57:55;;;;;;;10.67;7.90;;;1.70;94.60;;;;;;5051256;28;20501;-51
2022/03/04 01:00:23;;;;;;;9.93;8.77;;;1.90;94.10;;;;;;5050997;28;20474;-51
2022/03/04 01:02:50;;;;;;;12.50;9.07;;;2.00;94.00;;;;;;5054131;28;20929;-51
2022/03/04 01:05:17;;;;;;;11.50;8.73;;;2.10;94.00;;;;;;5055226;28;20467;-52
2022/03/04 01:07:44;;;;;;;14.80;8.93;;;2.10;93.80;;;;;;5055274;28;20548;-52
2022/03/04 01:10:11;;;;;;;9.00;8.10;;;2.30;93.90;;;;;;5055147;28;20449;-51
2022/03/04 01:12:38;;;;;;;10.33;9.03;;;2.30;93.80;;;;;;5055370;28;20474;-51
2022/03/04 01:15:06;;;;;;;9.57;8.00;;;2.30;93.60;;;;;;5054736;28;20884;-51
2022/03/04 01:17:35;;;;;;;10.37;7.40;;;2.30;93.30;;;;;;5054635;28;20902;-52
2022/03/04 01:20:02;;;;;;;13.00;8.47;;;2.40;93.00;;;;;;5055032;28;20536;-52
2022/03/04 01:22:29;;;;;;;10.83;8.43;;;2.30;92.70;;;;;;5054954;28;20973;-52
2022/03/04 01:24:56;;;;;;;12.13;8.87;;;1.80;92.60;;;;;;5055221;28;20473;-51
2022/03/04 01:27:23;;;;;;;12.73;9.13;;;1.50;93.40;;;;;;5054664;28;20497;-54
2022/03/04 01:29:50;;;;;;;12.53;8.40;;;1.30;93.60;;;;;;5054556;28;20480;-52
2022/03/04 01:32:17;;;;;;;12.57;8.80;;;1.10;93.90;;;;;;5054867;28;20532;-52
2022/03/04 01:34:45;;;;;;;11.10;8.27;;;0.90;94.10;;;;;;5054954;28;20477;-51
2022/03/04 01:37:12;;;;;;;10.63;8.50;;;1.00;94.60;;;;;;5054487;28;20564;-53
2022/03/04 01:39:39;;;;;;;13.63;9.50;;;1.20;94.80;;;;;;5054188;28;20526;-52
2022/03/04 01:42:07;;;;;;;12.60;8.80;;;1.30;94.40;;;;;;5054593;28;20886;-51
2022/03/04 01:44:34;;;;;;;11.73;9.33;;;1.50;94.40;;;;;;5054474;28;20437;-53
2022/03/04 01:47:01;;;;;;;10.23;9.13;;;1.60;94.20;;;;;;5054583;28;20504;-53
2022/03/04 01:49:28;;;;;;;12.73;9.00;;;1.50;93.50;;;;;;5054544;28;20938;-51
2022/03/04 01:51:56;;;;;;;12.63;9.30;;;1.10;93.50;;;;;;5054346;28;20942;-51
2022/03/04 01:54:23;;;;;;;18.07;10.23;;;0.70;94.20;;;;;;5054348;28;20474;-51
2022/03/04 01:56:50;;;;;;;12.13;9.37;;;0.40;95.10;;;;;;5054213;28;20581;-51
2022/03/04 01:59:18;;;;;;;12.70;9.10;;;0.10;95.60;;;;;;5053818;28;20499;-52
2022/03/04 02:01:45;;;;;;;11.87;9.50;;;-0.10;95.90;;;;;;5054346;28;20441;-51
2022/03/04 02:04:12;;;;;;;12.90;9.83;;;-0.20;96.20;;;;;;5054101;28;20939;-51
2022/03/04 02:06:39;;;;;;;10.40;8.23;;;-0.20;96.30;;;;;;5054308;28;20466;-52
2022/03/04 02:09:07;;;;;;;10.43;8.67;;;-0.20;96.40;;;;;;5053734;28;20484;-51
2022/03/04 02:11:34;;;;;;;13.47;9.37;;;0.00;96.50;;;;;;5053860;28;20817;-52
2022/03/04 02:14:01;;;;;;;9.27;8.23;;;0.10;96.30;;;;;;5053074;28;20947;-52
2022/03/04 02:16:35;;;;;;;8.77;7.80;;;0.50;96.60;;;;;;5053913;28;20565;-52
2022/03/04 02:19:02;;;;;;;10.37;8.60;;;0.70;96.30;;;;;;5053723;28;20469;-51
2022/03/04 02:21:32;;;;;;;11.70;8.80;;;0.90;96.10;;;;;;5053768;28;20483;-51
2022/03/04 02:24:01;;;;;;;13.57;9.50;;;1.10;95.50;;;;;;5053586;28;20531;-52
2022/03/04 02:26:28;;;;;;;13.10;9.27;;;1.20;95.30;;;;;;5053860;28;20486;-53
2022/03/04 02:28:55;;;;;;;9.77;8.23;;;1.30;95.00;;;;;;5053676;28;20480;-53
2022/03/04 02:31:22;;;;;;;10.70;9.47;;;1.40;95.10;;;;;;5053805;28;20843;-51
2022/03/04 02:33:50;;;;;;;13.10;9.33;;;1.40;94.80;;;;;;5053602;28;20473;-53
2022/03/04 02:36:17;;;;;;;12.03;8.23;;;1.50;94.90;;;;;;5053362;28;20513;-53
2022/03/04 02:38:44;;;;;;;10.63;9.23;;;1.50;94.40;;;;;;5053670;28;20528;-51
2022/03/04 02:41:13;;;;;;;10.20;7.87;;;1.60;94.10;;;;;;5053387;28;20481;-53
2022/03/04 02:43:40;;;;;;;9.83;8.93;;;1.50;94.20;;;;;;5053424;28;20485;-53
2022/03/04 02:46:06;;;;;;;15.30;10.30;;;1.40;94.00;;;;;;5053448;28;20520;-52
2022/03/04 02:48:34;;;;;;;15.70;9.23;;;1.00;94.30;;;;;;5053359;28;20492;-51
2022/03/04 02:51:01;;;;;;;10.07;8.90;;;0.50;94.70;;;;;;5053219;28;20445;-51
2022/03/04 02:53:28;;;;;;;10.97;8.83;;;0.20;95.20;;;;;;5053605;28;20472;-51
2022/03/04 02:55:55;;;;;;;11.33;8.37;;;0.20;95.60;;;;;;5052996;28;21032;-52
2022/03/04 02:58:23;;;;;;;10.70;8.70;;;0.10;95.60;;;;;;5053161;28;20479;-51
2022/03/04 03:00:50;;;;;;;13.97;9.37;;;0.10;95.80;;;;;;5052996;28;20982;-51
2022/03/04 03:03:17;;;;;;;12.33;9.07;;;0.30;96.00;;;;;;5053092;28;20806;-53
2022/03/04 03:05:44;;;;;;;14.67;9.70;;;0.60;95.80;;;;;;5053032;28;20809;-51
2022/03/04 03:08:12;;;;;;;12.87;9.53;;;0.70;95.40;;;;;;5053152;28;20524;-51
2022/03/04 03:10:40;;;;;;;9.90;8.67;;;0.80;95.20;;;;;;5052755;28;20455;-51
2022/03/04 03:13:06;;;;;;;9.40;8.30;;;1.00;95.30;;;;;;5052400;28;20480;-52
2022/03/04 03:15:35;;;;;;;11.70;9.37;;;1.00;95.10;;;;;;5052521;28;20480;-54
2022/03/04 03:18:02;;;;;;;11.80;8.83;;;0.40;94.50;;;;;;5052672;28;20994;-52
2022/03/04 03:20:29;;;;;;;12.20;9.17;;;0.20;95.30;;;;;;5052583;28;20571;-53
2022/03/04 03:22:56;;;;;;;8.83;7.83;;;-0.10;96.20;;;;;;5052787;28;20465;-52
2022/03/04 03:25:23;;;;;;;11.40;8.10;;;-0.20;97.00;;;;;;5052153;28;20993;-52
2022/03/04 03:27:50;;;;;;;11.03;9.17;;;-0.30;96.90;;;;;;5052189;28;20537;-52
2022/03/04 03:30:17;;;;;;;11.40;8.50;;;-0.50;96.80;;;;;;5052308;28;20555;-51
2022/03/04 03:32:45;;;;;;;10.20;7.90;;;-0.50;96.70;;;;;;5052768;28;20567;-51
2022/03/04 03:35:13;;;;;;;11.27;8.43;;;-0.50;96.70;;;;;;5052508;28;20475;-52
2022/03/04 03:37:40;;;;;;;14.63;9.80;;;-0.20;97.00;;;;;;5052167;28;21037;-51
2022/03/04 03:40:10;;;;;;;11.90;7.73;;;0.10;97.00;;;;;;5052179;28;20881;-51
2022/03/04 03:42:37;;;;;;;9.60;8.60;;;0.20;96.50;;;;;;5052525;28;20556;-51
2022/03/04 03:45:05;;;;;;;10.83;9.03;;;0.40;96.20;;;;;;5052557;28;20487;-51
2022/03/04 03:47:33;;;;;;;12.20;8.73;;;0.60;95.90;;;;;;5052097;28;21049;-51
2022/03/04 03:50:03;;;;;;;11.70;8.73;;;0.60;95.70;;;;;;5052003;28;20540;-52
2022/03/04 03:52:30;;;;;;;10.60;9.20;;;0.70;95.80;;;;;;5052132;28;20452;-54
2022/03/04 03:54:57;;;;;;;10.40;8.80;;;0.70;95.80;;;;;;5051914;28;20478;-52
2022/03/04 03:57:25;;;;;;;10.13;8.07;;;0.70;95.20;;;;;;5052180;28;20488;-51
2022/03/04 03:59:52;;;;;;;14.80;10.20;;;0.10;95.30;;;;;;5051945;28;20816;-53
2022/03/04 04:02:19;;;;;;;12.03;8.87;;;-0.30;96.10;;;;;;5052047;28;20952;-53
2022/03/04 04:04:46;;;;;;;11.40;9.07;;;-0.50;96.60;;;;;;5051938;28;20536;-51
2022/03/04 04:07:14;;;;;;;12.70;9.43;;;-0.60;97.00;;;;;;5051839;28;21001;-52
2022/03/04 04:09:42;;;;;;;8.70;7.83;;;-0.40;97.10;;;;;;5051467;28;20476;-52
2022/03/04 04:12:10;;;;;;;9.70;8.57;;;-0.20;97.20;;;;;;5051636;28;20453;-53
2022/03/04 04:14:37;;;;;;;12.90;8.77;;;-0.10;97.00;;;;;;5051648;28;20541;-51
2022/03/04 04:17:05;;;;;;;10.97;8.73;;;0.10;96.90;;;;;;5051539;28;20625;-51
2022/03/04 04:19:32;;;;;;;7.97;7.10;;;0.20;96.70;;;;;;5051254;28;20452;-53
2022/03/04 04:21:59;;;;;;;14.37;8.60;;;0.30;96.50;;;;;;5051870;28;20480;-51
2022/03/04 04:24:27;;;;;;;12.70;9.63;;;0.40;96.50;;;;;;5051676;28;20822;-51
2022/03/04 04:26:54;;;;;;;12.97;9.67;;;0.30;96.40;;;;;;5051595;28;20518;-51
2022/03/04 04:29:21;;;;;;;11.97;9.33;;;0.40;96.00;;;;;;5051248;28;20521;-51
2022/03/04 04:31:48;;;;;;;11.40;9.20;;;0.30;95.70;;;;;;5051414;28;20475;-53
2022/03/04 04:34:15;;;;;;;11.77;9.57;;;0.10;96.60;;;;;;5051274;28;20483;-51
2022/03/04 04:36:42;;;;;;;14.13;10.10;;;-0.20;97.30;;;;;;5050514;28;20488;-52
2022/03/04 04:39:09;;;;;;;14.20;10.07;;;-0.50;97.70;;;;;;5051394;28;20985;-51
2022/03/04 04:41:37;;;;;;;11.53;10.00;;;-0.70;97.80;;;;;;5051626;28;20471;-51
2022/03/04 04:44:05;;;;;;;13.80;9.47;;;-0.90;97.80;;;;;;5051375;28;20532;-51
2022/03/04 04:46:32;;;;;;;12.50;10.00;;;-0.80;98.10;;;;;;5051207;28;20496;-51
2022/03/04 04:48:59;;;;;;;11.60;9.50;;;-0.60;98.10;;;;;;5051112;28;20510;-54
2022/03/04 04:51:26;;;;;;;12.93;10.10;;;-0.40;97.90;;;;;;5051498;28;20479;-52
2022/03/04 04:53:53;;;;;;;15.20;9.97;;;-0.20;97.40;;;;;;5051141;28;20482;-51
2022/03/04 04:56:20;;;;;;;12.97;10.67;;;0.00;97.00;;;;;;5051136;28;20464;-51
2022/03/04 04:58:49;;;;;;;10.93;9.30;;;0.10;96.90;;;;;;5051193;28;20472;-51
2022/03/04 05:01:16;;;;;;;12.00;9.60;;;0.10;97.00;;;;;;5050762;28;20476;-51
2022/03/04 05:03:43;;;;;;;15.53;9.10;;;0.20;97.00;;;;;;5051447;28;20506;-51
2022/03/04 05:06:10;;;;;;;12.53;9.70;;;0.20;97.20;;;;;;5050995;28;20987;-53
2022/03/04 05:08:37;;;;;;;13.50;10.23;;;0.30;97.00;;;;;;5050911;28;20473;-52
2022/03/04 05:11:04;;;;;;;14.93;11.13;;;0.40;96.90;;;;;;5050870;28;20469;-51
2022/03/04 05:13:31;;;;;;;10.43;8.77;;;0.40;96.70;;;;;;5050817;28;20463;-53
2022/03/04 05:15:59;;;;;;;13.87;9.80;;;0.40;96.70;;;;;;5050810;28;20531;-50
2022/03/04 05:18:26;;;;;;;11.63;9.73;;;0.40;96.60;;;;;;5050854;28;20513;-51
2022/03/04 05:20:53;;;;;;;12.80;10.53;;;0.50;96.80;;;;;;5050678;28;20527;-52
2022/03/04 05:26:01;;;;;;;15.23;10.37;;;0.60;96.40;;;;;;5050512;28;20552;-51
2022/03/04 05:28:28;;;;;;;12.93;10.13;;;0.60;96.50;;;;;;5050853;28;20472;-51
2022/03/04 05:30:55;;;;;;;13.87;10.83;;;0.70;96.50;;;;;;5050821;28;20524;-51
2022/03/04 05:33:24;;;;;;;14.00;11.33;;;0.80;96.50;;;;;;5051020;28;20468;-51
2022/03/04 05:35:50;;;;;;;10.87;9.67;;;0.90;96.50;;;;;;5050652;28;20484;-51
2022/03/04 05:38:17;;;;;;;15.10;10.50;;;0.90;96.40;;;;;;5050783;28;20520;-51
2022/03/04 05:40:45;;;;;;;12.67;9.70;;;1.00;96.30;;;;;;5050329;28;20500;-54
2022/03/04 05:43:13;;;;;;;11.87;8.93;;;1.00;96.10;;;;;;5050824;28;21280;-51
2022/03/04 05:45:39;;;;;;;12.60;8.73;;;1.00;95.50;;;;;;5050465;28;20853;-53
2022/03/04 05:48:07;;;;;;;13.67;9.27;;;1.00;95.50;;;;;;5052196;28;20476;-52
2022/03/04 05:50:36;;;;;;;13.00;11.03;;;1.00;95.70;;;;;;5054262;28;20459;-51
2022/03/04 05:53:02;;;;;;;13.43;10.20;;;0.90;95.60;;;;;;5054389;28;20881;-51
2022/03/04 05:55:29;;;;;;;13.50;10.97;;;0.90;95.70;;;;;;5054214;28;20484;-52
2022/03/04 05:57:56;;;;;;;14.90;11.80;;;0.80;95.40;;;;;;5054340;28;20512;-51
2022/03/04 06:00:25;;;;;;;12.30;10.10;;;0.70;95.40;;;;;;5053928;28;21045;-51
2022/03/04 06:02:53;;;;;;;12.73;11.40;;;0.50;95.50;;;;;;5054157;28;20556;-53
2022/03/04 06:05:20;;;;;;;19.70;11.47;;;0.50;95.40;;;;;;5054332;28;20487;-52
2022/03/04 06:07:48;;;;;;;12.43;10.83;;;0.50;95.40;;;;;;5054012;28;20493;-52
2022/03/04 06:10:15;;;;;;;11.73;9.83;;;0.20;95.40;;;;;;5054117;28;20547;-51
2022/03/04 06:12:42;;;;;;;15.40;10.13;;;-0.10;96.00;;;;;;5054007;28;20489;-54
2022/03/04 06:15:10;;;;;;;11.03;9.83;;;-0.60;96.40;;;;;;5054057;28;20449;-51
2022/03/04 06:17:38;;;;;;;11.13;10.00;;;-0.80;97.00;;;;;;5054009;28;20490;-51
2022/03/04 06:20:06;;;;;;;15.50;10.30;;;-1.00;97.50;;;;;;5053706;28;20531;-53
2022/03/04 06:22:33;;;;;;;11.50;9.33;;;-0.70;97.60;;;;;;5053811;28;20482;-51
2022/03/04 06:25:02;;;;;;;10.37;9.27;;;-0.40;97.40;;;;;;5054141;28;20452;-51
2022/03/04 06:27:29;;;;;;;12.37;9.80;;;-0.40;97.30;;;;;;5053836;28;20494;-51
2022/03/04 06:29:56;;;;;;;11.67;9.43;;;-0.70;97.40;;;;;;5053601;28;20444;-51
2022/03/04 06:32:23;;;;;;;12.57;8.93;;;-0.80;98.10;;;;;;5053545;28;20477;-51
2022/03/04 06:34:50;;;;;;;11.03;9.40;;;-0.80;98.10;;;;;;5053610;28;20482;-51
2022/03/04 06:37:17;;;;;;;13.13;9.30;;;-0.70;97.90;;;;;;5054432;28;20520;-51
2022/03/04 06:39:44;;;;;;;16.10;10.90;;;-0.50;97.40;;;;;;5053534;28;20437;-52
2022/03/04 06:42:12;;;;;;;14.07;10.57;;;-0.40;97.40;;;;;;5053425;28;20486;-52
2022/03/04 06:44:39;;;;;;;16.87;11.70;;;-0.50;97.60;;;;;;5053626;28;20488;-51
2022/03/04 06:47:07;;;;;;;13.67;11.20;;;-1.00;98.30;;;;;;5053377;28;20489;-51
2022/03/04 06:49:35;;;;;;;17.17;11.37;;;-1.30;98.90;;;;;;5053096;28;20471;-51
2022/03/04 06:52:03;;;;;;;14.00;11.37;;;-1.40;99.20;;;;;;5053563;28;20525;-51
2022/03/04 06:54:32;;;;;;;15.73;11.50;;;-1.20;99.50;;;;;;5053135;28;20448;-51
2022/03/04 06:56:59;;;;;;;14.93;11.33;;;-0.90;99.30;;;;;;5053070;28;20468;-53
2022/03/04 06:59:27;;;;;;;20.70;11.50;;;-0.70;99.00;;;;;;5052220;28;20445;-51
2022/03/04 07:01:54;;;;;;;13.43;10.50;;;-0.50;98.70;;;;;;5052943;28;20481;-52
2022/03/04 07:04:21;;;;;;;15.40;12.53;;;-0.40;97.90;;;;;;5053543;28;20483;-51
2022/03/04 07:06:48;;;;;;;18.20;11.60;;;-0.30;97.80;;;;;;5053167;28;20517;-51
2022/03/04 07:09:15;;;;;;;12.43;9.93;;;-0.20;97.60;;;;;;5052837;28;20463;-51
2022/03/04 07:11:42;;;;;;;13.20;10.20;;;-0.10;97.50;;;;;;5053025;28;20448;-51
2022/03/04 07:14:09;;;;;;;11.93;10.67;;;-0.10;97.50;;;;;;5053038;28;20477;-51
2022/03/04 07:16:38;;;;;;;14.77;9.50;;;0.00;97.20;;;;;;5052739;28;21022;-51
2022/03/04 07:19:05;;;;;;;13.63;10.57;;;-0.40;97.00;;;;;;5052180;28;20569;-51
2022/03/04 07:21:31;;;;;;;14.17;11.00;;;-0.70;97.40;;;;;;5052714;28;20498;-51
2022/03/04 07:23:58;;;;;;;12.97;11.13;;;-0.60;97.90;;;;;;5052664;28;20669;-51
2022/03/04 07:26:25;;;;;;;13.93;11.23;;;-0.50;97.80;;;;;;5052794;28;20516;-51
2022/03/04 07:28:52;;;;;;;12.57;9.50;;;-0.30;97.80;;;;;;5052678;28;20464;-51
2022/03/04 07:31:19;;;;;;;13.13;10.57;;;-0.20;97.90;;;;;;5052497;28;20516;-53
2022/03/04 07:33:47;;;;;;;13.00;10.77;;;0.00;97.60;;;;;;5052543;28;20954;-51
2022/03/04 07:36:14;;;;;;;12.30;10.43;;;0.00;96.80;;;;;;5052275;28;20500;-54
2022/03/04 07:38:43;;;;;;;17.27;12.87;;;0.00;96.40;;;;;;5052627;28;20506;-51
2022/03/04 07:41:10;;;;;;;13.93;11.97;;;-0.10;96.30;;;;;;5052435;28;20448;-53
2022/03/04 07:43:37;;;;;;;19.80;12.23;;;-0.70;96.70;;;;;;5050835;28;20892;-51
2022/03/04 07:46:04;;;;;;;13.37;11.57;;;-1.00;97.30;;;;;;5052460;28;20500;-52
2022/03/04 07:48:31;;;;;;;21.53;12.60;;;-0.70;97.90;;;;;;5052181;28;20530;-51
2022/03/04 07:50:59;;;;;;;17.80;13.77;;;-0.50;98.00;;;;;;5051747;28;20675;-50
2022/03/04 07:53:26;;;;;;;17.63;13.40;;;-0.30;97.90;;;;;;5051781;28;20472;-51
2022/03/04 07:55:53;;;;;;;16.53;13.07;;;-0.20;98.00;;;;;;5051475;28;20545;-51
2022/03/04 07:58:20;;;;;;;18.17;13.10;;;-0.10;97.60;;;;;;5051734;28;20582;-51
2022/03/04 08:00:47;;;;;;;16.03;12.50;;;0.00;97.40;;;;;;5051803;28;20881;-52
2022/03/04 08:03:14;;;;;;;16.17;12.63;;;0.10;97.60;;;;;;5051867;28;20930;-51
2022/03/04 08:05:41;;;;;;;13.60;11.63;;;0.10;97.50;;;;;;5051787;28;20480;-51
2022/03/04 08:08:10;;;;;;;16.63;12.23;;;0.10;96.70;;;;;;5051687;28;20454;-51
2022/03/04 08:10:37;;;;;;;13.50;11.97;;;-0.10;96.30;;;;;;5051670;28;20939;-50
2022/03/04 08:13:04;;;;;;;19.83;14.97;;;-1.00;97.20;;;;;;5052130;28;20947;-52
2022/03/04 08:15:31;;;;;;;17.80;13.70;;;-1.20;98.40;;;;;;5051343;28;20450;-51
2022/03/04 08:17:58;;;;;;;17.90;12.93;;;-1.30;98.70;;;;;;5051311;28;20891;-52
2022/03/04 08:20:26;;;;;;;16.23;13.20;;;-1.10;99.30;;;;;;5051249;28;20444;-54
2022/03/04 08:22:54;;;;;;;16.70;12.20;;;-0.80;98.80;;;;;;5051822;28;20529;-51
2022/03/04 08:25:22;;;;;;;16.00;12.50;;;-0.60;98.50;;;;;;5051603;28;20451;-53
2022/03/04 08:27:49;;;;;;;12.90;10.23;;;-0.40;98.50;;;;;;5051607;28;20457;-52
2022/03/04 08:30:16;;;;;;;10.77;9.53;;;-0.20;98.40;;;;;;5051001;28;20879;-52
2022/03/04 08:32:43;;;;;;;12.87;10.80;;;0.00;98.50;;;;;;5051517;28;20478;-52
2022/03/04 08:35:11;;;;;;;12.03;9.73;;;0.20;98.70;;;;;;5051272;28;20524;-51
2022/03/04 08:37:38;;;;;;;12.20;9.77;;;0.40;98.70;;;;;;5051140;28;20582;-52
2022/03/04 08:40:08;;;;;;;12.53;10.70;;;0.40;98.60;;;;;;5051163;28;20473;-51
2022/03/04 08:42:37;;;;;;;14.07;10.27;;;0.20;98.10;;;;;;5051420;28;21000;-52
2022/03/04 08:45:04;;;;;;;14.17;10.77;;;0.30;98.50;;;;;;5050963;28;20514;-53
2022/03/04 08:47:31;;;;;;;13.40;11.33;;;0.50;98.30;;;;;;5051167;28;20500;-51
2022/03/04 08:49:58;;;;;;;14.73;10.40;;;0.60;98.50;;;;;;5051360;28;20528;-51
2022/03/04 08:52:25;;;;;;;13.37;10.37;;;0.60;98.70;;;;;;5051376;28;20477;-51
2022/03/04 08:54:52;;;;;;;11.77;10.47;;;0.70;99.00;;;;;;5051306;28;20475;-51
2022/03/04 08:57:20;;;;;;;11.60;10.40;;;0.90;99.20;;;;;;5049897;28;20492;-52
2022/03/04 08:59:48;;;;;;;14.00;11.20;;;1.00;99.40;;;;;;5050000;28;20576;-52
2022/03/04 09:02:15;;;;;;;12.60;9.70;;;1.00;99.20;;;;;;5051001;28;20477;-51
2022/03/04 09:04:42;;;;;;;14.60;11.20;;;1.00;99.30;;;;;;5050968;28;20484;-51
2022/03/04 09:07:09;;;;;;;15.00;10.80;;;1.10;99.00;;;;;;5050333;28;20492;-52
2022/03/04 09:09:38;;;;;;;13.83;10.57;;;1.20;98.80;;;;;;5050342;28;20468;-52
2022/03/04 09:12:07;;;;;;;16.97;12.23;;;1.40;98.60;;;;;;5049191;28;20486;-51
2022/03/04 09:14:34;;;;;;;22.53;15.60;;;1.50;98.50;;;;;;5050464;28;20472;-54
2022/03/04 09:17:02;;;;;;;25.87;16.43;;;1.40;99.10;;;;;;5050958;28;20561;-52
2022/03/04 09:19:30;;;;;;;29.97;17.33;;;1.40;99.80;;;;;;5050184;28;20535;-52
2022/03/04 09:21:57;;;;;;;19.07;14.53;;;1.50;99.90;;;;;;5051121;28;20539;-52
2022/03/04 09:24:24;;;;;;;19.43;14.40;;;1.30;99.90;;;;;;5055220;28;20529;-52
2022/03/04 09:26:51;;;;;;;19.70;14.37;;;1.10;99.90;;;;;;5054744;28;20492;-52
2022/03/04 09:29:18;;;;;;;19.90;14.37;;;1.10;99.90;;;;;;5055011;28;20465;-52
2022/03/04 09:31:45;;;;;;;19.60;13.63;;;1.40;99.90;;;;;;5054848;28;20469;-54
2022/03/04 09:34:13;;;;;;;17.70;12.47;;;1.60;99.90;;;;;;5054542;28;20484;-53
2022/03/04 09:36:40;;;;;;;17.23;13.20;;;1.60;99.70;;;;;;5054646;28;20538;-52
2022/03/04 09:39:07;;;;;;;14.87;13.23;;;1.50;99.60;;;;;;5054224;28;21053;-52
2022/03/04 09:41:34;;;;;;;17.43;11.60;;;1.50;99.30;;;;;;5054648;28;20483;-52
2022/03/04 09:44:02;;;;;;;21.60;13.33;;;1.40;99.50;;;;;;5054586;28;20469;-52
2022/03/04 09:46:30;;;;;;;14.73;10.67;;;1.50;97.40;;;;;;5054498;28;20552;-51
2022/03/04 09:48:57;;;;;;;18.10;13.00;;;1.60;96.90;;;;;;5054254;28;20472;-52
2022/03/04 09:51:25;;;;;;;16.23;13.47;;;1.80;97.30;;;;;;5054269;28;20473;-52
2022/03/04 09:53:52;;;;;;;14.90;11.63;;;1.80;98.30;;;;;;5054464;28;20441;-51
2022/03/04 09:56:20;;;;;;;17.40;12.67;;;1.80;97.10;;;;;;5063212;28;20464;-52
2022/03/04 09:58:47;;;;;;;19.37;11.77;;;1.90;97.00;;;;;;5074287;28;20551;-53
2022/03/04 10:01:15;;;;;;;13.60;11.90;;;2.10;96.80;;;;;;5064935;28;20478;-51
2022/03/04 10:03:44;;;;;;;14.90;13.00;;;2.20;96.60;;;;;;5053903;28;20442;-52
2022/03/04 10:06:11;;;;;;;19.90;12.90;;;2.30;96.00;;;;;;5058020;28;20470;-51
2022/03/04 10:08:40;;;;;;;18.93;13.97;;;2.40;95.90;;;;;;5073662;28;20529;-52
2022/03/04 10:11:08;;;;;;;17.20;11.67;;;2.40;94.60;;;;;;5069250;28;20480;-54
2022/03/04 10:13:44;;;;;;;14.90;11.83;;;2.60;95.10;;;;;;5060894;28;20876;-53
2022/03/04 10:16:11;;;;;;;17.27;11.83;;;2.80;94.70;;;;;;5058197;28;20876;-52
2022/03/04 10:18:38;;;;;;;12.80;10.27;;;3.00;95.30;;;;;;5067608;28;21032;-54
2022/03/04 10:21:05;;;;;;;13.77;10.80;;;3.20;94.80;;;;;;5065549;28;20963;-52
2022/03/04 10:23:32;;;;;;;14.63;10.50;;;3.40;93.90;;;;;;5052250;28;20468;-53
2022/03/04 10:26:02;;;;;;;14.47;11.23;;;3.50;92.00;;;;;;5057149;28;20499;-52
2022/03/04 10:28:30;;;;;;;14.77;11.53;;;3.50;91.80;;;;;;5071970;28;20446;-52
2022/03/04 10:30:58;;;;;;;15.97;11.33;;;3.60;91.90;;;;;;5073450;28;20477;-52
2022/03/04 10:33:26;;;;;;;16.73;11.03;;;3.60;91.10;;;;;;5073034;28;20716;-52
2022/03/04 10:36:09;;;;;;;15.20;9.80;;;3.50;92.20;;;;;;5058190;28;20557;-52
2022/03/04 10:38:36;;;;;;;13.50;9.70;;;3.80;93.30;;;;;;5060600;28;20507;-52
2022/03/04 10:41:23;;;;;;;13.03;10.37;;;4.00;92.40;;;;;;5064387;28;20475;-54
2022/03/04 10:43:51;;;;;;;19.13;12.03;;;4.20;92.00;;;;;;5052961;28;20444;-53
2022/03/04 10:46:18;;;;;;;13.40;10.07;;;4.40;91.90;;;;;;5053640;28;20475;-53
2022/03/04 10:48:56;;;;;;;15.10;10.97;;;4.20;90.20;;;;;;5054564;28;20812;-52
2022/03/04 10:51:39;;;;;;;15.20;10.43;;;4.30;90.00;;;;;;5053215;28;20477;-53
2022/03/04 10:54:16;;;;;;;11.97;9.97;;;4.50;90.80;;;;;;5051165;28;20481;-53
2022/03/04 10:56:55;;;;;;;15.03;11.27;;;4.60;90.60;;;;;;5054716;28;20473;-53
2022/03/04 10:59:22;;;;;;;11.60;9.70;;;4.80;89.00;;;;;;5052769;28;20484;-53
2022/03/04 11:01:50;;;;;;;14.93;10.90;;;4.90;89.70;;;;;;5052749;28;20539;-54
2022/03/04 11:04:18;;;;;;;14.50;11.60;;;4.90;88.60;;;;;;5068265;28;20437;-54
2022/03/04 11:06:47;;;;;;;20.90;11.40;;;4.70;90.30;;;;;;5067107;28;20525;-53
2022/03/04 11:09:15;;;;;;;16.10;11.90;;;5.00;90.30;;;;;;5061392;28;20528;-53
2022/03/04 11:11:43;;;;;;;11.13;9.93;;;5.20;89.40;;;;;;5065921;28;20441;-53
2022/03/04 11:14:13;;;;;;;14.60;10.57;;;5.20;87.60;;;;;;5064628;28;21016;-53
2022/03/04 11:16:41;;;;;;;13.63;11.43;;;5.30;87.00;;;;;;5070805;28;20463;-53
2022/03/04 11:19:09;;;;;;;14.23;11.20;;;5.30;86.60;;;;;;5070801;28;20511;-53
2022/03/04 11:21:36;;;;;;;17.80;11.50;;;5.20;86.70;;;;;;5071078;28;20478;-53
2022/03/04 11:24:03;;;;;;;11.77;10.17;;;5.50;88.50;;;;;;5066987;28;20543;-53
2022/03/04 11:26:32;;;;;;;16.20;10.07;;;5.60;83.80;;;;;;5068786;28;20461;-54
2022/03/04 11:29:02;;;;;;;16.97;11.23;;;5.80;84.40;;;;;;5068310;28;20468;-54
2022/03/04 11:31:31;;;;;;;13.10;9.97;;;6.00;82.50;;;;;;5068923;28;20445;-53
2022/03/04 11:34:00;;;;;;;11.30;10.07;;;6.10;84.80;;;;;;5060623;28;20491;-54
2022/03/04 11:36:29;;;;;;;10.17;9.27;;;6.20;84.10;;;;;;5061727;28;20468;-53
2022/03/04 11:39:00;;;;;;;13.13;10.20;;;6.20;85.20;;;;;;5060844;28;20480;-53
2022/03/04 11:41:37;;;;;;;11.70;10.27;;;6.30;80.20;;;;;;5059385;28;20539;-54
2022/03/04 11:44:18;;;;;;;11.57;10.13;;;6.40;79.60;;;;;;5059481;28;20441;-53
2022/03/04 11:46:52;;;;;;;10.70;9.60;;;6.50;82.90;;;;;;5059265;28;20464;-53
2022/03/04 11:49:43;;;;;;;11.47;10.20;;;6.40;75.30;;;;;;5062375;28;20432;-53
2022/03/04 11:52:36;;;;;;;16.17;10.43;;;6.30;73.60;;;;;;5052094;28;20445;-53
2022/03/04 11:55:21;;;;;;;13.87;10.03;;;6.40;77.50;;;;;;5063272;28;20498;-53
2022/03/04 11:57:49;;;;;;;13.40;9.33;;;6.50;79.90;;;;;;5070830;28;20464;-53
2022/03/04 12:00:25;;;;;;;12.47;10.30;;;6.50;80.80;;;;;;5071505;28;20479;-53
2022/03/04 12:02:55;;;;;;;10.33;8.00;;;5.90;75.50;;;;;;5067507;28;20506;-52
2022/03/04 12:05:28;;;;;;;11.20;8.80;;;6.10;71.30;;;;;;5051860;28;20517;-52
2022/03/04 12:08:12;;;;;;;11.20;9.40;;;6.30;71.80;;;;;;5052800;28;20465;-53
2022/03/04 12:10:47;;;;;;;14.63;9.50;;;6.50;70.80;;;;;;5053166;28;20469;-54
2022/03/04 12:13:18;;;;;;;15.00;9.80;;;6.60;74.30;;;;;;5054072;28;20707;-53
2022/03/04 12:15:50;;;;;;;9.17;7.37;;;6.80;76.80;;;;;;5049909;28;20706;-53
2022/03/04 12:18:30;;;;;;;10.87;8.53;;;6.90;68.30;;;;;;5058942;28;21020;-52
2022/03/04 12:21:00;;;;;;;10.03;8.30;;;7.00;69.40;;;;;;5067742;28;20444;-53
2022/03/04 12:23:33;;;;;;;10.47;7.93;;;7.10;71.20;;;;;;5066757;28;20524;-52
2022/03/04 12:26:20;;;;;;;13.87;8.40;;;7.10;66.70;;;;;;5062680;28;20455;-52
2022/03/04 12:28:49;;;;;;;9.13;8.27;;;7.10;62.60;;;;;;5069249;28;20486;-52
2022/03/04 12:31:21;;;;;;;11.17;7.70;;;7.00;59.00;;;;;;5055818;28;20515;-52
2022/03/04 12:33:58;;;;;;;8.67;7.77;;;7.10;62.70;;;;;;5071143;28;20445;-51
2022/03/04 12:36:28;;;;;;;13.80;8.20;;;7.20;59.90;;;;;;5059505;28;20503;-52
2022/03/04 12:38:57;;;;;;;26.57;10.13;;;7.20;61.20;;;;;;5068952;28;20576;-51
2022/03/04 12:41:26;;;;;;;13.47;8.30;;;7.00;58.10;;;;;;5062153;28;20980;-51
2022/03/04 12:43:55;;;;;;;7.90;6.43;;;6.70;60.90;;;;;;5069565;28;20532;-54
2022/03/04 12:46:23;;;;;;;9.90;7.27;;;6.80;60.40;;;;;;5070024;28;20472;-52
2022/03/04 12:48:53;;;;;;;16.73;9.00;;;6.80;58.90;;;;;;5067572;28;20981;-51